Flight Track Log - Related Links

Times and Time Zones

All times are in EDT time to prevent confusion due to time zone crossing. See the SWA2004 flight status page for this flight to view local times or setup timezone preferences in your user account.

Time Position Orientation Groundspeed Altitude Reporting Facility
EDT Latitude Longitude Course Direction KTS MPH feet Rate Location/Type
Sun 08:06:21 AM 29.9822 -90.2536 218° Southwest 157 181 400  Level Houston Center
Sun 08:07:28 AM 29.9458 -90.2864 218° Southwest 203 234 2,900 2,121 Climbing Houston Center
Sun 08:08:00 AM 29.9731 -90.3081 325° Northwest 256 295 3,900 2,581 Climbing Houston Center
Sun 08:09:01 AM 30.0467 -90.3331 344° North 268 308 6,900 3,098 Climbing Houston Center
Sun 08:10:02 AM 30.1269 -90.3172 10° North 286 329 10,200 2,508 Climbing Houston Center
Sun 08:11:03 AM 30.2183 -90.2942 12° North 329 379 12,000 2,628 Climbing Houston Center
Sun 08:12:03 AM 30.3217 -90.2717 11° North 368 423 15,500 3,174 Climbing Houston Center
Sun 08:13:04 AM 30.4239 -90.2447 13° North 374 430 18,400 2,459 Climbing Houston Center
Sun 08:14:05 AM 30.5325 -90.2219 10° North 391 450 20,500 2,311 Climbing Houston Center
Sun 08:15:06 AM 30.6444 -90.2239 359° North 398 458 23,100 2,459 Climbing Houston Center
Sun 08:16:07 AM 30.7514 -90.2503 348° North 385 443 25,500 1,636 Climbing Houston Center
Sun 08:17:07 AM 30.8725 -90.2494 360° North 429 494 26,400 1,152 Climbing Houston Center
Sun 08:18:12 AM 30.9986 -90.2522 359° North 449 517 27,900 1,475 Climbing Houston Center
Sun 08:19:09 AM 31.1278 -90.2539 359° North 458 527 29,400 1,627 Climbing Houston Center
Sun 08:20:10 AM 31.2606 -90.2547 360° North 471 542 31,100 1,869 Climbing Houston Center
Sun 08:21:11 AM 31.3892 -90.2567 359° North 465 535 33,200 1,820 Climbing Houston Center
Sun 08:22:12 AM 31.5156 -90.2578 360° North 455 524 34,800 1,672 Climbing Houston Center
Sun 08:23:13 AM 31.6408 -90.2597 359° North 451 519 36,600 1,082 Climbing Houston Center
Sun 08:24:14 AM 31.7869 -90.2606 360° North 438 504 37,000 197 Climbing Houston Center
Sun 08:25:15 AM 31.9075 -90.2619 359° North 434 499 37,000  Level Houston Center
Sun 08:25:57 AM 31.9831 -90.2619 360° North 431 496 37,000  Level Memphis Center
Sun 08:26:57 AM 32.1042 -90.2642 359° North 431 496 37,000  Level Memphis Center
Sun 08:27:57 AM 32.2231 -90.2639 360° North 431 496 37,000  Level Memphis Center
Sun 08:28:57 AM 32.3442 -90.2664 359° North 431 496 37,000  Level Memphis Center
Sun 08:29:57 AM 32.4653 -90.2661 360° North 431 496 37,000  Level Memphis Center
Sun 08:30:57 AM 32.5883 -90.2711 358° North 436 502 37,000 150 Level Memphis Center
Sun 08:31:57 AM 32.7094 -90.2808 356° North 436 502 37,300 750 Climbing Memphis Center
Sun 08:32:57 AM 32.8328 -90.2906 356° North 441 507 38,500 850 Climbing Memphis Center
Sun 08:33:57 AM 32.9494 -90.2978 357° North 435 501 39,000 250 Climbing Memphis Center
Sun 08:34:57 AM 33.0706 -90.2878 North 430 495 39,000  Level Memphis Center
Sun 08:35:57 AM 33.1917 -90.2703 North 430 495 39,000  Level Memphis Center
Sun 08:36:57 AM 33.3128 -90.2503 North 430 495 39,000  Level Memphis Center
Sun 08:37:57 AM 33.4339 -90.2328 North 430 495 39,000  Level Memphis Center
Sun 08:38:57 AM 33.5547 -90.2128 North 435 501 39,000  Level Memphis Center
Sun 08:39:57 AM 33.6781 -90.1925 North 435 501 39,000  Level Memphis Center
Sun 08:40:57 AM 33.7989 -90.1747 North 440 506 39,000  Level Memphis Center
Sun 08:41:57 AM 33.9200 -90.1569 North 440 506 39,000  Level Memphis Center
Sun 08:42:57 AM 34.0411 -90.1367 North 440 506 39,000  Level Memphis Center
Sun 08:43:57 AM 34.1642 -90.1161 North 445 512 39,000  Level Memphis Center
Sun 08:44:57 AM 34.2933 -90.1006 North 440 506 39,000  Level Memphis Center
Sun 08:45:57 AM 34.4144 -90.0803 North 440 506 39,000  Level Memphis Center
Sun 08:46:57 AM 34.5417 -90.0622 North 445 512 39,000  Level Memphis Center
Sun 08:47:57 AM 34.6606 -90.0439 North 445 512 39,000  Level Memphis Center
Sun 08:48:57 AM 34.7878 -90.0258 North 445 512 39,000  Level Memphis Center
Sun 08:49:57 AM 34.9150 -90.0050 North 450 518 39,000  Level Memphis Center
Sun 08:50:57 AM 35.0256 -89.9869 North 450 518 39,000  Level Memphis Center
Sun 08:51:57 AM 35.1486 -89.9558 12° North 445 512 39,000  Level Memphis Center
Sun 08:52:57 AM 35.2714 -89.9247 12° North 452 520 39,000  Level Memphis Center
Sun 08:53:57 AM 35.4050 -89.8933 11° North 447 514 39,000  Level Memphis Center
Sun 08:54:57 AM 35.5319 -89.8647 10° North 453 521 39,000  Level Memphis Center
Sun 08:55:57 AM 35.6569 -89.8333 12° North 453 521 39,000  Level Memphis Center
Sun 08:56:57 AM 35.7611 -89.8122 North 443 510 39,000  Level Memphis Center
Sun 08:57:57 AM 35.8861 -89.7806 12° North 438 504 39,000  Level Memphis Center
Sun 08:58:57 AM 36.0092 -89.7539 10° North 445 512 39,000  Level Memphis Center
Sun 08:59:57 AM 36.1319 -89.7247 11° North 450 518 39,000  Level Memphis Center
Sun 09:00:57 AM 36.2569 -89.6956 11° North 450 518 39,000  Level Memphis Center
Sun 09:01:57 AM 36.3942 -89.6633 11° North 450 518 39,000  Level Memphis Center
Sun 09:02:57 AM 36.5214 -89.6339 11° North 450 518 39,000  Level Memphis Center
Sun 09:03:57 AM 36.6461 -89.6017 12° North 450 518 39,000  Level Memphis Center
Sun 09:04:57 AM 36.7689 -89.5722 11° North 450 518 39,000  Level Memphis Center
Sun 09:07:09 AM 37.0381 -89.5039 11° North 448 516 39,000  Level Kansas City Center
Sun 09:08:10 AM 37.1611 -89.4739 11° North 448 516 39,000  Level Kansas City Center
Sun 09:09:11 AM 37.2828 -89.4439 11° North 446 513 39,000  Level Kansas City Center
Sun 09:10:12 AM 37.4056 -89.4144 11° North 448 516 39,000  Level Kansas City Center
Sun 09:11:13 AM 37.5278 -89.3842 11° North 447 514 39,000  Level Kansas City Center
Sun 09:12:14 AM 37.6500 -89.3539 11° North 447 514 39,000  Level Kansas City Center
Sun 09:13:15 AM 37.7611 -89.3278 11° North 444 511 39,000  Level Kansas City Center
Sun 09:14:16 AM 37.9056 -89.3022 North 448 516 39,000  Level Kansas City Center
Sun 09:15:18 AM 38.0253 -89.2783 North 439 505 39,000  Level Kansas City Center
Sun 09:16:19 AM 38.1453 -89.2575 North 436 502 39,000 -393 Level Kansas City Center
Sun 09:18:21 AM 38.3928 -89.2100 North 435 501 37,800 -689 Descending Kansas City Center
Sun 09:19:22 AM 38.5092 -89.1881 North 427 491 36,900 -934 Descending Kansas City Center
Sun 09:20:23 AM 38.6336 -89.1644 North 422 486 35,900 -927 Descending Kansas City Center
Sun 09:21:25 AM 38.7519 -89.1417 North 429 494 35,000 -683 Descending Kansas City Center
Sun 09:22:26 AM 38.8667 -89.1197 North 420 483 34,500 -738 Descending Kansas City Center
Sun 09:23:27 AM 38.9831 -89.0961 North 424 488 33,500 -984 Descending Kansas City Center
Sun 09:24:28 AM 39.1089 -89.0725 North 425 489 32,500 -927 Descending Kansas City Center
Sun 09:25:30 AM 39.2258 -89.0475 North 433 498 31,600 -927 Descending Kansas City Center
Sun 09:26:31 AM 39.3464 -89.0250 North 436 502 30,600 -934 Descending Kansas City Center
Sun 09:27:32 AM 39.4567 -89.0036 North 433 498 29,700 -787 Descending Kansas City Center
Sun 09:28:33 AM 39.5725 -88.9814 North 426 490 29,000 -344 Descending Kansas City Center
Sun 09:29:34 AM 39.6867 -88.9583 North 419 482 29,000  Level Kansas City Center
Sun 09:30:36 AM 39.8242 -88.9314 North 418 481 29,000  Level Kansas City Center
Sun 09:31:37 AM 39.9378 -88.9106 North 414 476 29,000  Level Kansas City Center
Sun 09:32:38 AM 40.0525 -88.8869 North 416 479 29,000 -585 Level Kansas City Center
Sun 09:33:40 AM 40.1667 -88.8644 North 416 479 27,800 -1,714 Descending Kansas City Center
Sun 09:34:02 AM 40.2108 -88.8569 North 416 479 26,600 -2,602 Descending Chicago Center
Sun 09:35:03 AM 40.3222 -88.8322 10° North 412 474 24,200 -2,341 Descending Chicago Center
Sun 09:36:05 AM 40.4281 -88.8125 North 397 457 21,800 -2,226 Descending Chicago Center
Sun 09:37:07 AM 40.5294 -88.7944 North 376 433 19,600 -2,049 Descending Chicago Center
Sun 09:38:08 AM 40.6283 -88.7733 North 365 420 17,600 -1,268 Descending Chicago Center
Sun 09:39:10 AM 40.7250 -88.7536 North 356 410 17,000 -629 Descending Chicago Center
Sun 09:40:12 AM 40.8333 -88.6983 21° North 352 405 16,300 -1,220 Descending Chicago Center
Sun 09:41:13 AM 40.9208 -88.6528 21° North 342 394 14,500 -1,805 Descending Chicago Center
Sun 09:42:15 AM 41.0056 -88.6081 22° Northeast 335 386 12,600 -1,790 Descending Chicago Center
Sun 09:43:17 AM 41.0886 -88.5617 23° Northeast 327 376 10,800 -1,220 Descending Chicago Center
Sun 09:44:18 AM 41.1681 -88.5203 21° North 314 361 10,100 -927 Descending Chicago Center
Sun 09:45:20 AM 41.2389 -88.4828 22° Northeast 292 336 8,900 -1,258 Descending Chicago Center
Sun 09:46:22 AM 41.3078 -88.4458 22° Northeast 277 319 7,500 -1,415 Descending Chicago Center
Sun 09:47:23 AM 41.3856 -88.3919 27° Northeast 273 314 6,000 -732 Descending Chicago Center
Sun 09:48:25 AM 41.4286 -88.3175 52° Northeast 259 298 6,000 -341 Level Chicago Center
Sun 09:49:26 AM 41.4728 -88.2392 53° Northeast 260 299 5,300 -585 Descending Chicago Center
Sun 09:50:28 AM 41.5133 -88.1675 53° Northeast 245 282 4,800 -629 Descending Chicago Center
Sun 09:51:30 AM 41.5397 -88.0961 64° Northeast 227 261 4,000 -390 Descending Chicago Center
Sun 09:52:31 AM 41.5611 -88.0381 64° Northeast 195 224 4,000  Level Chicago Center
Sun 09:53:33 AM 41.5919 -87.9922 48° Northeast 176 203 4,000  Level Chicago Center
Sun 09:54:34 AM 41.6264 -87.9522 41° Northeast 168 193 4,000 -49 Level Chicago Center
Sun 09:55:36 AM 41.6606 -87.9094 43° Northeast 168 193 3,900 -532 Descending Chicago Center
Sun 09:56:38 AM 41.6986 -87.8614 43° Northeast 162 186 2,900 -963 Descending Chicago Center
Sun 09:56:57 AM 41.7000 -87.8500 81° East 147 169 2,600 -835 Descending Chicago TRACON
Sun 09:57:57 AM 41.7333 -87.8167 37° Northeast 139 160 1,800 -737 Descending Chicago TRACON
Sun 09:58:51 AM 41.7667 -87.7833 37° Northeast 131 151 1,200 -667 Descending Chicago TRACON

Login

Don't have an account? Register now (free) for customized features, flight alerts, and more!